createdAt,value
2019-01-25T00:01:47.253Z,94976.44
2019-01-25T00:04:16.450Z,94986.80
2019-01-25T00:06:45.659Z,94984.74
2019-01-25T00:09:33.874Z,94982.64
2019-01-25T00:12:03.039Z,94974.66
2019-01-25T00:14:32.224Z,94976.41
2019-01-25T00:19:56.918Z,94967.08
2019-01-25T00:22:26.547Z,94974.88
2019-01-25T00:24:55.750Z,94971.84
2019-01-25T00:27:24.910Z,94969.30
2019-01-25T00:29:54.143Z,94971.05
2019-01-25T00:32:23.327Z,94970.58
2019-01-25T00:34:52.542Z,94974.34
2019-01-25T00:37:21.736Z,94977.22
2019-01-25T00:39:51.311Z,94977.45
2019-01-25T00:42:20.499Z,94982.58
2019-01-25T00:44:50.046Z,94990.40
2019-01-25T00:47:19.223Z,94986.53
2019-01-25T00:49:48.475Z,94980.96
2019-01-25T00:52:17.685Z,94992.45
2019-01-25T00:54:47.216Z,94985.66
2019-01-25T00:57:16.430Z,94985.59
2019-01-25T00:59:45.916Z,94987.03
2019-01-25T01:02:15.133Z,94990.88
2019-01-25T01:04:44.317Z,94996.11
2019-01-25T01:07:13.500Z,94999.00
2019-01-25T01:09:42.717Z,94997.89
2019-01-25T01:12:11.897Z,95005.77
2019-01-25T01:14:41.407Z,95012.02
2019-01-25T01:17:10.915Z,95012.02
2019-01-25T01:19:40.419Z,95004.73
2019-01-25T01:22:09.611Z,95012.58
2019-01-25T01:24:38.798Z,95005.96
2019-01-25T01:27:08.097Z,95013.85
2019-01-25T01:29:37.303Z,95019.03
2019-01-25T01:32:06.618Z,95021.59
2019-01-25T01:34:35.804Z,95027.59
2019-01-25T01:37:44.392Z,95024.52
2019-01-25T01:40:54.582Z,95022.95
2019-01-25T01:43:23.786Z,95029.38
2019-01-25T01:45:53.296Z,95033.73
2019-01-25T01:48:22.510Z,95030.70
2019-01-25T01:50:51.694Z,95036.60
2019-01-25T01:53:20.905Z,95033.80
2019-01-25T01:55:50.080Z,95025.77
2019-01-25T01:58:19.272Z,95026.02
2019-01-25T02:00:48.474Z,95024.77
2019-01-25T02:03:17.995Z,95022.41
2019-01-25T02:05:47.176Z,95024.83
2019-01-25T02:08:16.354Z,95028.41
2019-01-25T02:10:45.658Z,95028.09
2019-01-25T02:13:14.852Z,95021.39
2019-01-25T02:15:44.383Z,95028.34
2019-01-25T02:18:13.561Z,95024.77
2019-01-25T02:20:42.748Z,95028.91
2019-01-25T02:23:11.965Z,95024.79
2019-01-25T02:28:29.335Z,95030.80
2019-01-25T02:30:58.918Z,95031.63
2019-01-25T02:33:28.125Z,95026.37
2019-01-25T02:35:57.302Z,95031.59
2019-01-25T02:38:26.513Z,95036.73
2019-01-25T02:41:14.781Z,95036.45
2019-01-25T02:43:44.362Z,95037.23
2019-01-25T02:46:13.551Z,95031.48
2019-01-25T02:48:42.767Z,95037.62
2019-01-25T02:51:11.948Z,95034.61
2019-01-25T02:53:41.128Z,95037.02
2019-01-25T02:56:10.345Z,95047.78
2019-01-25T02:58:39.523Z,95041.59
2019-01-25T03:01:08.725Z,95042.18
2019-01-25T03:03:37.904Z,95042.68
2019-01-25T03:06:07.223Z,95050.63
2019-01-25T03:08:36.435Z,95050.84
2019-01-25T03:11:45.029Z,95054.97
2019-01-25T03:14:14.214Z,95051.75
2019-01-25T03:16:43.414Z,95050.75
2019-01-25T03:19:12.872Z,95048.24
2019-01-25T03:22:01.132Z,95051.91
2019-01-25T03:24:30.342Z,95059.63
2019-01-25T03:26:59.534Z,95060.20
2019-01-25T03:29:28.727Z,95061.23
2019-01-25T03:32:05.196Z,95067.30
2019-01-25T03:34:34.407Z,95067.58
2019-01-25T03:37:03.594Z,95075.11
2019-01-25T03:39:32.782Z,95073.06
2019-01-25T03:42:01.981Z,95071.64
2019-01-25T03:44:31.200Z,95069.53
2019-01-25T03:47:00.668Z,95067.42
2019-01-25T03:49:29.856Z,95075.19
2019-01-25T03:52:18.055Z,95077.97
2019-01-25T03:54:47.235Z,95083.65
2019-01-25T03:57:16.438Z,95083.60
2019-01-25T03:59:45.618Z,95084.50
2019-01-25T04:02:14.802Z,95084.15
2019-01-25T04:04:44.013Z,95089.91
2019-01-25T04:07:13.486Z,95083.81
2019-01-25T04:09:42.694Z,95083.50
2019-01-25T04:12:12.193Z,95095.30
2019-01-25T04:14:41.393Z,95087.78
2019-01-25T04:17:10.892Z,95092.55
2019-01-25T04:19:40.397Z,95091.59
2019-01-25T04:22:09.582Z,95087.98
2019-01-25T04:24:38.789Z,95094.80
2019-01-25T04:27:07.969Z,95094.03
2019-01-25T04:29:37.171Z,95094.38
2019-01-25T04:32:06.369Z,95088.45
2019-01-25T04:34:35.553Z,95091.66
2019-01-25T04:37:05.198Z,95095.13
2019-01-25T04:39:34.380Z,95091.69
2019-01-25T04:42:03.601Z,95098.23
2019-01-25T04:44:32.791Z,95091.91
2019-01-25T04:47:01.976Z,95096.17
2019-01-25T04:50:10.565Z,95093.70
2019-01-25T04:52:39.869Z,95095.56
2019-01-25T04:55:29.571Z,95087.72
2019-01-25T04:58:18.659Z,95091.33
2019-01-25T05:00:48.300Z,95101.21
2019-01-25T05:03:17.488Z,95095.67
2019-01-25T05:08:42.356Z,95093.79
2019-01-25T05:11:30.640Z,95102.19
2019-01-25T05:14:18.759Z,95096.22
2019-01-25T05:16:47.959Z,95100.36
2019-01-25T05:19:17.142Z,95093.52
2019-01-25T05:21:46.357Z,95104.14
2019-01-25T05:24:15.547Z,95101.91
2019-01-25T05:26:44.736Z,95104.16
2019-01-25T05:29:13.990Z,95111.20
2019-01-25T05:31:43.192Z,95107.50
2019-01-25T05:34:12.406Z,95105.95
2019-01-25T05:36:41.584Z,95108.00
2019-01-25T05:39:11.138Z,95110.67
2019-01-25T05:41:40.336Z,95111.11
2019-01-25T05:44:09.515Z,95114.93
2019-01-25T05:46:38.727Z,95117.19
2019-01-25T05:49:26.870Z,95117.34
2019-01-25T05:52:14.982Z,95118.36
2019-01-25T05:54:44.197Z,95123.44
2019-01-25T05:57:32.457Z,95130.32
2019-01-25T06:02:37.662Z,95129.42
2019-01-25T06:05:07.155Z,95132.80
2019-01-25T06:07:36.720Z,95131.97
2019-01-25T06:10:45.971Z,95134.91
2019-01-25T06:13:15.156Z,95135.84
2019-01-25T06:15:44.614Z,95140.05
2019-01-25T06:18:13.816Z,95142.77
2019-01-25T06:20:43.017Z,95138.39
2019-01-25T06:23:12.217Z,95142.75
2019-01-25T06:25:41.409Z,95147.83
2019-01-25T06:28:10.628Z,95140.10
2019-01-25T06:30:39.832Z,95152.39
2019-01-25T06:33:09.044Z,95155.91
2019-01-25T06:35:38.233Z,95150.83
2019-01-25T06:38:07.439Z,95148.50
2019-01-25T06:43:24.830Z,95159.29
2019-01-25T06:45:54.025Z,95160.53
2019-01-25T06:48:23.291Z,95157.30
2019-01-25T06:53:27.504Z,95164.77
2019-01-25T06:55:56.707Z,95162.73
2019-01-25T06:58:44.822Z,95166.89
2019-01-25T07:01:32.962Z,95167.03
2019-01-25T07:04:02.149Z,95168.25
2019-01-25T07:06:31.357Z,95171.22
2019-01-25T07:09:00.543Z,95172.49
2019-01-25T07:11:29.746Z,95181.17
2019-01-25T07:13:58.929Z,95169.39
2019-01-25T07:16:28.134Z,95167.31
2019-01-25T07:18:57.320Z,95181.42
2019-01-25T07:21:26.796Z,95179.61
2019-01-25T07:23:55.979Z,95183.67
2019-01-25T07:26:25.151Z,95180.94
2019-01-25T07:28:54.373Z,95176.05
2019-01-25T07:31:23.583Z,95176.92
2019-01-25T07:33:52.788Z,95177.97
2019-01-25T07:36:22.528Z,95194.70
2019-01-25T07:38:51.785Z,95189.88
2019-01-25T07:41:21.011Z,95184.58
2019-01-25T07:43:50.218Z,95187.86
2019-01-25T07:46:19.404Z,95193.58
2019-01-25T07:48:48.609Z,95204.38
2019-01-25T07:51:17.788Z,95197.02
2019-01-25T07:53:47.106Z,95201.69
2019-01-25T07:56:16.506Z,95197.16
2019-01-25T07:58:45.664Z,95202.59
2019-01-25T08:01:14.920Z,95205.91
2019-01-25T08:03:44.084Z,95207.20
2019-01-25T08:06:13.301Z,95214.25
2019-01-25T08:08:42.753Z,95216.44
2019-01-25T08:11:11.988Z,95231.11
2019-01-25T08:13:41.227Z,95235.20
2019-01-25T08:16:10.434Z,95233.34
2019-01-25T08:18:39.638Z,95232.42
2019-01-25T08:21:08.846Z,95231.38
2019-01-25T08:23:56.976Z,95230.13
2019-01-25T08:26:26.180Z,95235.64
2019-01-25T08:28:55.386Z,95229.76
2019-01-25T08:31:24.793Z,95230.52
2019-01-25T08:33:54.159Z,95234.69
2019-01-25T08:36:23.488Z,95242.31
2019-01-25T08:38:52.729Z,95243.73
2019-01-25T08:41:21.956Z,95249.67
2019-01-25T08:43:51.205Z,95249.88
2019-01-25T08:46:20.376Z,95245.14
2019-01-25T08:48:49.582Z,95251.02
2019-01-25T08:51:18.761Z,95255.67
2019-01-25T08:53:47.965Z,95253.11
2019-01-25T08:56:17.139Z,95252.61
2019-01-25T08:58:46.889Z,95257.73
2019-01-25T09:01:16.052Z,95250.89
2019-01-25T09:03:45.244Z,95242.79
2019-01-25T09:06:14.776Z,95239.11
2019-01-25T09:08:43.969Z,95238.30
2019-01-25T09:11:13.298Z,95239.72
2019-01-25T09:13:42.477Z,95252.29
2019-01-25T09:16:11.685Z,95257.30
2019-01-25T09:18:40.869Z,95256.45
2019-01-25T09:21:10.075Z,95254.38
2019-01-25T09:23:39.255Z,95252.89
2019-01-25T09:26:08.572Z,95260.11
2019-01-25T09:28:37.752Z,95261.76
2019-01-25T09:31:07.264Z,95265.04
2019-01-25T09:33:36.771Z,95268.08
2019-01-25T09:36:05.954Z,95270.31
2019-01-25T09:38:35.137Z,95268.14
2019-01-25T09:44:00.290Z,95270.16
2019-01-25T09:46:30.199Z,95277.09
2019-01-25T09:49:00.404Z,95275.75
2019-01-25T09:51:29.594Z,95273.56
2019-01-25T09:53:58.797Z,95278.88
2019-01-25T09:56:28.323Z,95281.57
2019-01-25T09:58:58.367Z,95280.80
2019-01-25T10:01:27.944Z,95285.74
2019-01-25T10:03:57.132Z,95290.41
2019-01-25T10:06:26.352Z,95282.34
2019-01-25T10:08:55.534Z,95287.02
2019-01-25T10:11:43.748Z,95292.23
2019-01-25T10:14:13.245Z,95296.70
2019-01-25T10:16:42.424Z,95290.73
2019-01-25T10:19:11.618Z,95300.34
2019-01-25T10:21:40.793Z,95296.20
2019-01-25T10:24:29.074Z,95304.11
2019-01-25T10:26:58.634Z,95294.59
2019-01-25T10:29:28.135Z,95298.05
2019-01-25T10:31:57.348Z,95300.45
2019-01-25T10:34:26.564Z,95296.46
2019-01-25T10:36:55.746Z,95298.66
2019-01-25T10:39:24.984Z,95294.06
2019-01-25T10:41:54.167Z,95295.42
2019-01-25T10:44:23.379Z,95290.89
2019-01-25T10:46:52.581Z,95296.35
2019-01-25T10:49:22.128Z,95292.19
2019-01-25T10:51:51.336Z,95292.78
2019-01-25T10:54:20.828Z,95288.00
2019-01-25T10:56:50.028Z,95293.80
2019-01-25T10:59:19.209Z,95285.45
2019-01-25T11:01:48.812Z,95286.17
2019-01-25T11:04:18.009Z,95285.11
2019-01-25T11:06:47.573Z,95291.03
2019-01-25T11:09:16.754Z,95283.64
2019-01-25T11:11:46.340Z,95281.59
2019-01-25T11:14:15.520Z,95282.16
2019-01-25T11:16:44.720Z,95285.91
2019-01-25T11:19:13.911Z,95277.16
2019-01-25T11:21:43.111Z,95289.56
2019-01-25T11:24:12.297Z,95289.83
2019-01-25T11:26:41.523Z,95282.28
2019-01-25T11:29:10.728Z,95283.63
2019-01-25T11:31:39.941Z,95289.83
2019-01-25T11:34:09.155Z,95283.25
2019-01-25T11:36:38.335Z,95281.84
2019-01-25T11:39:49.358Z,95282.77
2019-01-25T11:42:18.658Z,95276.59
2019-01-25T11:44:47.873Z,95277.40
2019-01-25T11:47:17.063Z,95281.57
2019-01-25T11:49:46.310Z,95270.76
2019-01-25T11:52:15.823Z,95273.85
2019-01-25T11:54:45.036Z,95278.88
2019-01-25T11:57:14.665Z,95286.09
2019-01-25T11:59:43.901Z,95280.46
2019-01-25T12:02:13.089Z,95280.63
2019-01-25T12:04:42.308Z,95279.26
2019-01-25T12:07:11.952Z,95265.64
2019-01-25T12:09:41.169Z,95277.45
2019-01-25T12:12:10.371Z,95283.31
2019-01-25T12:14:39.559Z,95282.64
2019-01-25T12:17:08.927Z,95280.94
2019-01-25T12:19:38.106Z,95288.70
2019-01-25T12:22:07.326Z,95280.47
2019-01-25T12:24:36.513Z,95278.88
2019-01-25T12:27:05.725Z,95276.80
2019-01-25T12:29:34.901Z,95284.91
2019-01-25T12:32:04.234Z,95269.92
2019-01-25T12:34:33.417Z,95274.66
2019-01-25T12:37:04.724Z,95273.48
2019-01-25T12:39:33.893Z,95275.31
2019-01-25T12:42:03.101Z,95266.71
2019-01-25T12:44:32.310Z,95271.02
2019-01-25T12:47:01.510Z,95269.41
2019-01-25T12:49:30.723Z,95278.11
2019-01-25T12:55:13.011Z,95270.27
2019-01-25T12:57:42.212Z,95277.16
2019-01-25T13:08:59.932Z,95284.58
2019-01-25T13:11:29.142Z,95288.34
2019-01-25T13:13:58.327Z,95289.08
2019-01-25T13:16:27.537Z,95287.42
2019-01-25T13:18:56.730Z,95280.41
2019-01-25T13:21:26.320Z,95273.12
2019-01-25T13:23:55.507Z,95276.47
2019-01-25T13:26:25.020Z,95288.81
2019-01-25T13:28:54.232Z,95303.23
2019-01-25T13:31:23.521Z,95290.21
2019-01-25T13:33:52.789Z,95297.84
2019-01-25T13:36:22.036Z,95302.00
2019-01-25T13:38:51.942Z,95291.73
2019-01-25T13:41:21.464Z,95297.48
2019-01-25T13:43:50.794Z,95284.20
2019-01-25T13:49:08.183Z,95288.80
2019-01-25T13:51:37.365Z,95278.88
2019-01-25T13:54:07.802Z,95294.66
2019-01-25T13:56:37.488Z,95286.31
2019-01-25T13:59:07.916Z,95297.44
2019-01-25T14:01:37.942Z,95300.68
2019-01-25T14:04:07.152Z,95301.84
2019-01-25T14:06:36.328Z,95296.63
2019-01-25T14:09:46.734Z,95299.95
2019-01-25T14:12:15.937Z,95295.08
2019-01-25T14:14:45.420Z,95295.27
2019-01-25T14:17:14.604Z,95285.17
2019-01-25T14:19:43.790Z,95293.98
2019-01-25T14:22:13.006Z,95291.34
2019-01-25T14:24:42.198Z,95284.08
2019-01-25T14:27:11.376Z,95295.16
2019-01-25T14:29:40.582Z,95304.45
2019-01-25T14:32:10.106Z,95309.81
2019-01-25T14:34:39.343Z,95309.77
2019-01-25T14:37:08.525Z,95316.27
2019-01-25T14:39:38.005Z,95322.22
2019-01-25T14:42:07.224Z,95320.04
2019-01-25T14:44:36.408Z,95321.44
2019-01-25T14:47:05.595Z,95320.84
2019-01-25T14:49:34.800Z,95316.02
2019-01-25T14:52:04.081Z,95319.95
2019-01-25T14:54:33.277Z,95314.14
2019-01-25T14:57:02.511Z,95320.84
2019-01-25T14:59:31.700Z,95320.19
2019-01-25T15:02:00.891Z,95333.23
2019-01-25T15:04:30.106Z,95335.39
2019-01-25T15:06:59.292Z,95343.34
2019-01-25T15:09:28.483Z,95352.85
2019-01-25T15:12:16.781Z,95348.69
2019-01-25T15:14:46.327Z,95346.64
2019-01-25T15:17:15.539Z,95347.17
2019-01-25T15:19:44.831Z,95347.95
2019-01-25T15:22:14.003Z,95347.14
2019-01-25T15:24:43.186Z,95344.36
2019-01-25T15:27:12.381Z,95351.22
2019-01-25T15:38:09.587Z,95358.63
2019-01-25T15:40:38.767Z,95353.56
2019-01-25T15:43:07.963Z,95362.13
2019-01-25T15:45:37.172Z,95361.28
2019-01-25T15:48:06.485Z,95351.97
2019-01-25T15:50:35.767Z,95347.70
2019-01-25T15:53:05.155Z,95348.41
2019-01-25T15:55:34.367Z,95350.18
2019-01-25T15:58:03.565Z,95352.95
2019-01-25T16:00:32.929Z,95359.06
2019-01-25T16:03:02.530Z,95365.27
2019-01-25T16:05:31.779Z,95372.17
2019-01-25T16:08:01.327Z,95373.38
2019-01-25T16:10:30.707Z,95374.93
2019-01-25T16:12:59.915Z,95372.34
2019-01-25T16:15:31.372Z,95372.16
2019-01-25T16:18:00.580Z,95380.87
2019-01-25T16:20:29.911Z,95376.20
2019-01-25T16:22:59.591Z,95379.52
2019-01-25T16:25:31.115Z,95388.55
2019-01-25T16:28:00.317Z,95384.86
2019-01-25T16:33:40.146Z,95385.59
2019-01-25T16:36:09.327Z,95375.97
2019-01-25T16:38:38.565Z,95376.06
2019-01-25T16:41:07.747Z,95384.73
2019-01-25T16:43:36.948Z,95384.86
2019-01-25T16:46:06.184Z,95381.97
2019-01-25T16:48:35.391Z,95391.85
2019-01-25T16:51:04.895Z,95384.37
2019-01-25T16:53:34.089Z,95385.92
2019-01-25T16:56:03.272Z,95378.56
2019-01-25T16:58:32.479Z,95376.02
2019-01-25T17:01:01.993Z,95378.62
2019-01-25T17:03:31.200Z,95373.53
2019-01-25T17:06:00.410Z,95378.31
2019-01-25T17:08:29.997Z,95378.94
2019-01-25T17:10:59.211Z,95378.17
2019-01-25T17:13:28.492Z,95371.79
2019-01-25T17:15:57.728Z,95381.52
2019-01-25T17:18:26.921Z,95373.50
2019-01-25T17:20:56.125Z,95377.05
2019-01-25T17:23:25.691Z,95379.92
2019-01-25T17:25:55.051Z,95377.81
2019-01-25T17:28:24.293Z,95383.88
2019-01-25T17:30:53.504Z,95392.09
2019-01-25T17:33:22.690Z,95387.75
2019-01-25T17:35:52.210Z,95385.83
2019-01-25T17:38:21.389Z,95390.92
2019-01-25T17:40:50.640Z,95385.05
2019-01-25T17:43:19.872Z,95385.92
2019-01-25T17:45:49.093Z,95386.70
2019-01-25T17:48:18.388Z,95387.69
2019-01-25T17:50:47.987Z,95389.50
2019-01-25T17:53:17.182Z,95391.77
2019-01-25T17:55:46.392Z,95400.20
2019-01-25T17:58:16.299Z,95391.67
2019-01-25T18:03:28.097Z,95387.71
2019-01-25T18:05:57.487Z,95392.67
2019-01-25T18:08:26.748Z,95392.38
2019-01-25T18:10:55.948Z,95392.86
2019-01-25T18:13:25.128Z,95398.23
2019-01-25T18:15:54.348Z,95398.73
2019-01-25T18:18:23.525Z,95403.63
2019-01-25T18:20:52.737Z,95401.78
2019-01-25T18:23:21.921Z,95398.86
2019-01-25T18:26:11.702Z,95406.09
2019-01-25T18:28:55.426Z,95399.83
2019-01-25T18:31:25.866Z,95409.20
2019-01-25T18:33:55.397Z,95397.96
2019-01-25T18:36:24.601Z,95407.91
2019-01-25T18:38:53.792Z,95404.09
2019-01-25T18:41:22.997Z,95396.34
2019-01-25T18:43:52.208Z,95401.62
2019-01-25T18:46:21.413Z,95402.35
2019-01-25T18:48:50.995Z,95396.98
2019-01-25T18:51:20.206Z,95402.08
2019-01-25T18:53:49.395Z,95409.79
2019-01-25T18:56:20.175Z,95405.48
2019-01-25T18:58:49.394Z,95405.83
2019-01-25T19:01:18.574Z,95398.98
2019-01-25T19:03:48.175Z,95398.83
2019-01-25T19:06:17.362Z,95405.42
2019-01-25T19:08:46.572Z,95411.64
2019-01-25T19:11:16.481Z,95418.61
2019-01-25T19:13:45.701Z,95422.92
2019-01-25T19:16:14.902Z,95423.99
2019-01-25T19:18:44.113Z,95432.14
2019-01-25T19:21:13.285Z,95434.83
2019-01-25T19:23:42.629Z,95438.82
2019-01-25T19:26:11.838Z,95433.53
2019-01-25T19:28:41.054Z,95438.63
2019-01-25T19:31:10.575Z,95442.59
2019-01-25T19:33:40.079Z,95445.69
2019-01-25T19:36:09.279Z,95433.23
2019-01-25T19:38:38.522Z,95442.23
2019-01-25T19:41:07.757Z,95442.14
2019-01-25T19:46:12.561Z,95448.94
2019-01-25T19:48:41.764Z,95452.77
2019-01-25T19:51:11.412Z,95446.75
2019-01-25T19:53:40.618Z,95441.59
2019-01-25T19:56:09.805Z,95434.30
2019-01-25T19:58:41.941Z,95434.64
2019-01-25T20:01:11.134Z,95443.95
2019-01-25T20:03:40.359Z,95447.22
2019-01-25T20:06:09.744Z,95447.66
2019-01-25T20:08:39.099Z,95439.06
2019-01-25T20:11:08.286Z,95445.92
2019-01-25T20:13:37.709Z,95440.16
2019-01-25T20:16:06.896Z,95434.48
2019-01-25T20:18:38.004Z,95426.46
2019-01-25T20:21:07.276Z,95432.73
2019-01-25T20:23:36.501Z,95445.05
2019-01-25T20:26:45.269Z,95444.14
2019-01-25T20:29:14.530Z,95441.77
2019-01-25T20:32:02.672Z,95434.31
2019-01-25T20:34:31.899Z,95419.23
2019-01-25T20:37:01.102Z,95420.89
2019-01-25T20:39:30.345Z,95424.55
2019-01-25T20:42:00.008Z,95418.91
2019-01-25T20:44:29.271Z,95418.13
2019-01-25T20:46:58.530Z,95418.11
2019-01-25T20:52:07.504Z,95428.95
2019-01-25T20:54:37.043Z,95430.22
2019-01-25T20:57:06.254Z,95428.08
2019-01-25T20:59:35.490Z,95417.36
2019-01-25T21:02:04.943Z,95419.75
2019-01-25T21:04:34.199Z,95431.06
2019-01-25T21:07:03.457Z,95429.16
2019-01-25T21:09:32.732Z,95424.91
2019-01-25T21:12:02.017Z,95415.28
2019-01-25T21:14:31.251Z,95412.47
2019-01-25T21:17:00.524Z,95405.28
2019-01-25T21:19:29.776Z,95414.73
2019-01-25T21:21:59.339Z,95413.88
2019-01-25T21:24:28.664Z,95427.95
2019-01-25T21:26:57.869Z,95421.30
2019-01-25T21:29:27.446Z,95420.89
2019-01-25T21:31:56.634Z,95406.66
2019-01-25T21:34:25.838Z,95396.80
2019-01-25T21:36:55.340Z,95384.84
2019-01-25T21:39:24.547Z,95389.16
2019-01-25T21:41:53.724Z,95384.78
2019-01-25T21:44:22.935Z,95386.97
2019-01-25T21:46:52.150Z,95381.53
2019-01-25T21:49:21.741Z,95377.58
2019-01-25T21:52:10.292Z,95376.72
2019-01-25T21:54:40.050Z,95368.39
2019-01-25T21:57:09.654Z,95370.94
2019-01-25T21:59:39.252Z,95371.72
2019-01-25T22:02:08.458Z,95368.39
2019-01-25T22:04:37.761Z,95360.91
2019-01-25T22:07:06.993Z,95358.91
2019-01-25T22:09:36.545Z,95355.04
2019-01-25T22:12:05.730Z,95345.98
2019-01-25T22:14:35.873Z,95356.02
2019-01-25T22:17:05.240Z,95352.13
2019-01-25T22:19:34.832Z,95361.25
2019-01-25T22:25:34.590Z,95357.58
2019-01-25T22:28:03.909Z,95351.70
2019-01-25T22:30:33.516Z,95359.34
2019-01-25T22:33:02.698Z,95361.88
2019-01-25T22:35:31.932Z,95358.27
2019-01-25T22:38:01.487Z,95352.00
2019-01-25T22:40:32.366Z,95358.22
2019-01-25T22:43:01.558Z,95354.38
2019-01-25T22:45:31.876Z,95351.36
2019-01-25T22:48:02.793Z,95350.06
2019-01-25T22:50:34.356Z,95344.00
2019-01-25T22:53:03.555Z,95337.30
2019-01-25T22:55:51.756Z,95337.21
2019-01-25T22:58:20.940Z,95330.73
2019-01-25T23:01:28.217Z,95330.39
2019-01-25T23:04:35.467Z,95333.56
2019-01-25T23:07:27.720Z,95324.72
2019-01-25T23:10:01.948Z,95325.16
2019-01-25T23:12:31.128Z,95323.45
2019-01-25T23:15:00.350Z,95332.64
2019-01-25T23:17:29.536Z,95322.57
2019-01-25T23:19:58.750Z,95321.61
2019-01-25T23:22:27.931Z,95308.73
2019-01-25T23:24:57.139Z,95310.03
2019-01-25T23:27:45.408Z,95314.59
2019-01-25T23:30:57.924Z,95309.72
2019-01-25T23:33:27.455Z,95308.63
2019-01-25T23:35:56.722Z,95301.75
2019-01-25T23:38:25.920Z,95299.46
2019-01-25T23:40:55.127Z,95296.88
2019-01-25T23:43:24.435Z,95289.05
2019-01-25T23:45:53.642Z,95287.59
2019-01-25T23:48:22.825Z,95289.61
2019-01-25T23:50:52.052Z,95289.52
2019-01-25T23:53:21.204Z,95284.19
2019-01-25T23:55:50.410Z,95284.19
2019-01-25T23:58:19.595Z,95273.64
